Time;durP1;ratioP1;P1;durP2;ratioP2;P2;SDS_P1;SDS_P2;PMS_P1;PMS_P2;Temp;Humidity;BMP_temperature;BMP_pressure;BME280_temperature;BME280_humidity;BME280_pressure;Samples;Min_cycle;Max_cycle;Signal;HPM_P1;HPM_P2
2022/09/15 00:00:56;;;;;;;13.02;4.75;;;13.20;99.90;;;;;;4933968;28;210150;-67
2022/09/15 00:03:23;;;;;;;10.10;4.80;;;13.30;99.90;;;;;;4970568;28;20503;-67
2022/09/15 00:05:51;;;;;;;9.05;4.40;;;13.30;99.90;;;;;;4939845;28;212592;-68
2022/09/15 00:08:17;;;;;;;10.02;4.90;;;13.40;99.90;;;;;;4993497;28;20061;-68
2022/09/15 00:11:07;;;;;;;10.38;5.20;;;13.50;99.90;;;;;;4946462;28;210952;-66
2022/09/15 00:13:35;;;;;;;12.35;5.55;;;13.50;99.90;;;;;;4993001;28;20066;-67
2022/09/15 00:16:02;;;;;;;10.95;5.43;;;13.60;99.90;;;;;;4938126;28;209802;-67
2022/09/15 00:18:28;;;;;;;14.40;6.20;;;13.60;99.90;;;;;;4979565;28;20046;-67
2022/09/15 00:20:55;;;;;;;12.30;5.93;;;13.60;99.90;;;;;;4937881;28;215997;-67
2022/09/15 00:23:21;;;;;;;13.82;6.20;;;13.70;99.90;;;;;;4984522;28;20062;-67
2022/09/15 00:25:50;;;;;;;12.57;5.43;;;13.70;99.90;;;;;;4939104;28;219784;-67
2022/09/15 00:28:18;;;;;;;12.02;4.90;;;13.80;99.90;;;;;;4985568;28;20050;-67
2022/09/15 00:30:47;;;;;;;12.77;5.30;;;13.80;99.90;;;;;;4938118;28;211529;-67
2022/09/15 00:33:14;;;;;;;12.27;5.25;;;13.90;99.90;;;;;;4986880;28;20403;-67
2022/09/15 00:35:43;;;;;;;14.32;4.90;;;14.00;99.90;;;;;;4949263;28;212235;-66
2022/09/15 00:38:11;;;;;;;15.13;5.13;;;14.00;99.90;;;;;;4990377;28;20077;-67
2022/09/15 00:40:48;;;;;;;12.02;4.90;;;14.00;99.90;;;;;;4929656;28;209797;-67
2022/09/15 00:43:16;;;;;;;11.65;4.50;;;14.10;99.90;;;;;;4981056;28;20053;-68
2022/09/15 00:45:42;;;;;;;11.15;4.40;;;14.10;99.90;;;;;;4943043;28;209924;-67
2022/09/15 00:48:15;;;;;;;12.38;4.07;;;14.10;99.90;;;;;;4970865;28;20396;-66
2022/09/15 00:50:47;;;;;;;9.80;3.55;;;14.10;99.90;;;;;;4940258;28;215820;-67
2022/09/15 00:53:16;;;;;;;10.90;4.05;;;14.00;99.90;;;;;;4992468;28;20169;-67
2022/09/15 00:55:46;;;;;;;15.05;4.18;;;14.10;99.90;;;;;;4936426;28;208635;-68
2022/09/15 00:58:22;;;;;;;14.55;4.65;;;14.10;99.90;;;;;;4982340;28;20626;-67
2022/09/15 01:00:55;;;;;;;14.55;4.53;;;14.10;99.90;;;;;;4941878;28;183722;-67
2022/09/15 01:03:23;;;;;;;14.10;5.82;;;14.10;99.90;;;;;;4984102;28;20062;-67
2022/09/15 01:05:55;;;;;;;14.45;5.95;;;14.10;99.90;;;;;;4940212;28;210251;-68
2022/09/15 01:08:27;;;;;;;14.43;6.03;;;14.10;99.90;;;;;;4982484;28;20063;-67
2022/09/15 01:10:53;;;;;;;11.77;5.90;;;14.10;99.90;;;;;;4936734;28;209297;-67
2022/09/15 01:13:19;;;;;;;13.52;6.57;;;14.10;99.90;;;;;;4982639;28;20054;-66
2022/09/15 01:16:15;;;;;;;15.23;6.80;;;14.00;99.90;;;;;;4933679;28;208663;-67
2022/09/15 01:19:07;;;;;;;14.52;6.65;;;14.10;99.90;;;;;;4978076;28;20053;-68
2022/09/15 01:22:30;;;;;;;12.77;5.97;;;14.00;99.90;;;;;;4926539;28;206552;-66
2022/09/15 01:25:06;;;;;;;15.05;6.43;;;14.00;99.90;;;;;;4899036;29;187730;-67
2022/09/15 01:27:37;;;;;;;12.85;5.97;;;14.00;99.90;;;;;;4863820;29;205887;-67
2022/09/15 01:30:10;;;;;;;12.57;5.70;;;14.10;99.90;;;;;;4843429;29;216658;-67
2022/09/15 01:33:02;;;;;;;11.25;4.93;;;14.00;99.90;;;;;;4905069;29;20064;-67
2022/09/15 01:35:37;;;;;;;12.52;4.75;;;14.00;99.90;;;;;;4858664;29;206368;-68
2022/09/15 01:38:06;;;;;;;12.98;4.60;;;14.10;99.90;;;;;;4890508;29;20079;-68
2022/09/15 01:40:40;;;;;;;15.57;4.75;;;14.00;99.90;;;;;;4852156;29;206821;-66
2022/09/15 01:43:09;;;;;;;12.60;4.65;;;14.00;99.90;;;;;;4900572;29;20130;-67
2022/09/15 01:45:40;;;;;;;13.82;4.40;;;14.00;99.90;;;;;;4850733;29;212917;-66
2022/09/15 01:48:08;;;;;;;9.70;4.15;;;14.00;99.90;;;;;;4901583;29;20057;-67
2022/09/15 01:50:41;;;;;;;14.55;3.83;;;14.00;99.90;;;;;;4875299;29;138676;-66
2022/09/15 01:53:14;;;;;;;11.50;3.90;;;14.00;99.90;;;;;;4886540;29;20065;-67
2022/09/15 01:55:50;;;;;;;15.43;3.80;;;14.00;99.90;;;;;;4885236;28;209694;-68
2022/09/15 01:58:16;;;;;;;13.05;3.70;;;14.00;99.90;;;;;;4974910;28;20050;-67
2022/09/15 02:00:48;;;;;;;11.63;3.22;;;14.00;99.90;;;;;;4919665;28;207158;-67
2022/09/15 02:03:47;;;;;;;14.73;3.42;;;13.90;99.90;;;;;;4967637;28;20070;-68
2022/09/15 02:06:34;;;;;;;11.50;3.10;;;14.00;99.90;;;;;;4919218;28;212931;-67
2022/09/15 02:09:11;;;;;;;10.55;3.03;;;13.90;99.90;;;;;;4960182;28;20586;-66
2022/09/15 02:11:47;;;;;;;10.77;3.45;;;13.90;99.90;;;;;;4937307;28;209539;-65
2022/09/15 02:14:19;;;;;;;13.80;3.22;;;13.90;99.90;;;;;;4958216;28;20055;-67
2022/09/15 02:16:49;;;;;;;10.75;2.80;;;13.90;99.90;;;;;;4935324;28;81493;-67
2022/09/15 02:19:33;;;;;;;11.65;2.90;;;13.90;99.90;;;;;;4983532;28;20054;-67
2022/09/15 02:22:22;;;;;;;11.90;3.03;;;13.90;99.90;;;;;;4952897;28;213738;-68
2022/09/15 02:24:58;;;;;;;11.82;2.60;;;13.90;99.90;;;;;;4989990;28;20058;-68
2022/09/15 02:27:30;;;;;;;10.85;2.10;;;13.90;99.90;;;;;;4911756;28;206648;-69
2022/09/15 02:30:04;;;;;;;10.77;1.70;;;13.90;99.90;;;;;;4955764;28;210414;-67
2022/09/15 02:32:33;;;;;;;11.00;1.77;;;13.90;99.90;;;;;;4946968;28;205903;-68
2022/09/15 02:35:05;;;;;;;11.02;2.03;;;13.80;99.90;;;;;;4962493;28;214844;-68
2022/09/15 02:37:34;;;;;;;13.20;1.90;;;13.70;99.90;;;;;;4986447;28;206287;-67
2022/09/15 02:40:01;;;;;;;12.27;1.60;;;13.70;99.90;;;;;;4956666;28;209506;-67
2022/09/15 02:42:31;;;;;;;13.88;2.05;;;13.70;99.90;;;;;;4956829;28;206621;-67
2022/09/15 02:44:58;;;;;;;13.70;2.05;;;13.70;99.90;;;;;;4965317;28;209566;-66
2022/09/15 02:47:24;;;;;;;14.70;1.83;;;13.70;99.90;;;;;;4958554;28;161780;-67
2022/09/15 02:49:50;;;;;;;8.75;1.52;;;13.70;99.90;;;;;;4979512;28;20057;-66
2022/09/15 02:52:17;;;;;;;12.95;1.75;;;13.70;99.90;;;;;;4931568;28;206958;-67
2022/09/15 02:54:43;;;;;;;10.63;1.50;;;13.70;99.90;;;;;;4975956;28;20057;-67
2022/09/15 02:57:09;;;;;;;12.35;1.58;;;13.80;99.90;;;;;;4935361;28;209135;-67
2022/09/15 03:00:21;;;;;;;13.88;1.65;;;13.80;99.90;;;;;;4979641;28;20057;-67
2022/09/15 03:02:22;;;;;;;15.32;1.67;;;13.80;99.90;;;;;;4919824;28;156483;-66
2022/09/15 03:04:49;;;;;;;10.98;1.77;;;13.80;99.90;;;;;;4982736;28;20039;-67
2022/09/15 03:07:16;;;;;;;12.48;1.70;;;13.80;99.90;;;;;;4948931;28;205330;-67
2022/09/15 03:09:42;;;;;;;11.15;1.52;;;13.80;99.90;;;;;;4976890;28;20324;-67
2022/09/15 03:12:08;;;;;;;12.98;1.65;;;13.80;99.90;;;;;;4940744;28;209309;-66
2022/09/15 03:14:34;;;;;;;10.88;1.80;;;13.80;99.90;;;;;;4977840;28;20058;-66
2022/09/15 03:17:02;;;;;;;11.57;1.55;;;13.80;99.90;;;;;;4934934;28;207170;-67
2022/09/15 03:19:28;;;;;;;10.85;1.63;;;13.90;99.90;;;;;;4999754;28;20043;-65
2022/09/15 03:21:54;;;;;;;13.43;1.60;;;13.90;99.90;;;;;;4930538;28;207958;-67
2022/09/15 03:24:21;;;;;;;11.25;1.50;;;13.90;99.90;;;;;;4978804;28;20070;-67
2022/09/15 03:26:48;;;;;;;12.13;1.58;;;13.90;99.90;;;;;;4933713;28;208901;-67
2022/09/15 03:29:15;;;;;;;9.82;1.40;;;13.90;99.90;;;;;;4980046;28;20046;-65
2022/09/15 03:31:41;;;;;;;10.45;1.30;;;13.90;99.90;;;;;;4957129;28;207834;-67
2022/09/15 03:34:07;;;;;;;10.95;1.50;;;13.90;99.90;;;;;;4980624;28;20054;-66
2022/09/15 03:36:34;;;;;;;11.05;1.70;;;13.90;99.90;;;;;;4954230;28;209733;-67
2022/09/15 03:39:03;;;;;;;9.73;1.77;;;13.90;99.90;;;;;;4984151;28;20417;-67
2022/09/15 03:41:29;;;;;;;14.80;1.73;;;13.90;99.90;;;;;;4939068;28;208792;-66
2022/09/15 03:43:56;;;;;;;11.82;1.73;;;13.90;99.90;;;;;;4987160;28;20061;-67
2022/09/15 03:46:22;;;;;;;10.00;1.60;;;13.90;99.90;;;;;;4935325;28;209974;-65
2022/09/15 03:48:48;;;;;;;13.00;1.58;;;13.90;99.90;;;;;;4985132;28;20057;-67
2022/09/15 03:51:14;;;;;;;10.85;1.50;;;13.90;99.90;;;;;;4930312;28;209629;-67
2022/09/15 03:53:41;;;;;;;7.90;1.20;;;13.90;99.90;;;;;;4984183;28;20050;-67
2022/09/15 03:56:20;;;;;;;8.95;1.40;;;13.90;99.90;;;;;;4925546;28;212520;-66
2022/09/15 03:58:47;;;;;;;12.77;1.60;;;13.90;99.90;;;;;;4956077;28;20054;-67
2022/09/15 04:01:13;;;;;;;14.82;1.50;;;13.90;99.90;;;;;;4919989;28;209729;-66
2022/09/15 04:03:39;;;;;;;11.65;1.60;;;13.90;99.90;;;;;;4953417;28;20058;-66
2022/09/15 04:06:06;;;;;;;11.63;1.50;;;13.90;99.90;;;;;;4908378;28;209448;-66
2022/09/15 04:08:32;;;;;;;12.07;1.85;;;13.80;99.90;;;;;;4958360;28;20043;-67
2022/09/15 04:11:02;;;;;;;11.80;1.50;;;13.90;99.90;;;;;;4922991;28;210171;-67
2022/09/15 04:13:28;;;;;;;13.65;1.75;;;13.80;99.90;;;;;;4968687;28;20058;-67
2022/09/15 04:16:02;;;;;;;12.43;1.67;;;13.80;99.90;;;;;;4917505;28;211064;-67
2022/09/15 04:18:29;;;;;;;12.68;1.80;;;13.80;99.90;;;;;;4969274;28;20047;-67
2022/09/15 04:20:59;;;;;;;12.43;1.60;;;13.80;99.90;;;;;;4908794;28;210268;-66
2022/09/15 04:23:26;;;;;;;11.35;1.70;;;13.80;99.90;;;;;;4945569;28;20058;-66
2022/09/15 04:25:56;;;;;;;11.52;1.77;;;13.70;99.90;;;;;;4923781;28;209579;-67
2022/09/15 04:28:24;;;;;;;12.85;1.83;;;13.70;99.90;;;;;;4967744;28;20579;-67
2022/09/15 04:30:52;;;;;;;9.77;1.85;;;13.60;99.90;;;;;;4914019;28;209656;-67
2022/09/15 04:33:19;;;;;;;15.23;2.08;;;13.60;99.90;;;;;;4945463;28;20055;-66
2022/09/15 04:35:45;;;;;;;11.85;1.77;;;13.50;99.90;;;;;;4906557;28;215325;-65
2022/09/15 04:38:11;;;;;;;9.25;1.50;;;13.50;99.90;;;;;;4958881;28;20053;-67
2022/09/15 04:40:37;;;;;;;12.32;1.63;;;13.50;99.90;;;;;;4922089;28;149270;-66
2022/09/15 04:43:05;;;;;;;13.20;1.80;;;13.50;99.90;;;;;;4950882;28;20055;-65
2022/09/15 04:45:32;;;;;;;11.40;1.50;;;13.50;99.90;;;;;;4911775;28;208884;-67
2022/09/15 04:47:59;;;;;;;10.70;1.58;;;13.50;99.90;;;;;;4963140;28;20074;-66
2022/09/15 04:50:25;;;;;;;9.82;1.60;;;13.50;99.90;;;;;;4912749;28;212706;-66
2022/09/15 04:52:51;;;;;;;9.02;1.50;;;13.50;99.90;;;;;;4969487;28;20058;-66
2022/09/15 04:55:17;;;;;;;13.60;1.63;;;13.50;99.90;;;;;;4907986;28;209757;-66
2022/09/15 04:57:43;;;;;;;11.10;1.70;;;13.50;99.90;;;;;;4954776;28;20047;-67
2022/09/15 05:00:10;;;;;;;10.53;1.30;;;13.50;99.90;;;;;;4916673;28;210944;-66
2022/09/15 05:02:36;;;;;;;7.53;1.30;;;13.50;99.90;;;;;;4944428;28;20062;-66
2022/09/15 05:05:03;;;;;;;10.93;1.42;;;13.50;99.90;;;;;;4915756;28;210737;-66
2022/09/15 05:07:29;;;;;;;12.77;1.40;;;13.50;99.90;;;;;;4979330;28;20065;-66
2022/09/15 05:09:55;;;;;;;11.60;1.50;;;13.50;99.90;;;;;;4959559;28;20149;-66
2022/09/15 05:12:21;;;;;;;11.88;1.58;;;13.50;99.90;;;;;;4931453;28;207275;-67
2022/09/15 05:14:47;;;;;;;7.45;1.13;;;13.60;99.90;;;;;;4954359;28;20058;-67
2022/09/15 05:17:14;;;;;;;8.95;1.40;;;13.60;99.90;;;;;;4923873;28;210701;-67
2022/09/15 05:19:40;;;;;;;10.70;1.70;;;13.50;99.90;;;;;;4962597;28;20508;-67
2022/09/15 05:22:06;;;;;;;9.98;1.45;;;13.60;99.90;;;;;;4927574;28;210916;-67
2022/09/15 05:24:33;;;;;;;11.80;1.58;;;13.50;99.90;;;;;;4957207;28;20054;-67
2022/09/15 05:26:59;;;;;;;11.98;1.48;;;13.50;99.90;;;;;;4904421;28;206643;-66
2022/09/15 05:29:25;;;;;;;9.85;1.27;;;13.50;99.90;;;;;;4956598;28;20066;-66
2022/09/15 05:31:51;;;;;;;10.77;1.50;;;13.50;99.90;;;;;;4918299;28;212046;-67
2022/09/15 05:34:18;;;;;;;11.35;1.92;;;13.50;99.90;;;;;;4961370;28;20448;-66
2022/09/15 05:36:44;;;;;;;11.52;1.58;;;13.50;99.90;;;;;;4906994;28;214216;-67
2022/09/15 05:39:10;;;;;;;9.85;1.60;;;13.50;99.90;;;;;;4965321;28;20047;-67
2022/09/15 05:41:36;;;;;;;11.00;1.58;;;13.40;99.90;;;;;;4923901;28;205719;-67
2022/09/15 05:44:02;;;;;;;13.40;1.45;;;13.40;99.90;;;;;;4952915;28;20062;-67
2022/09/15 05:46:28;;;;;;;10.65;1.60;;;13.40;99.90;;;;;;4928451;28;209591;-65
2022/09/15 05:48:56;;;;;;;10.13;1.33;;;13.40;99.90;;;;;;4966763;28;20076;-66
2022/09/15 05:51:23;;;;;;;14.68;1.75;;;13.40;99.90;;;;;;4910414;28;230100;-67
2022/09/15 05:53:49;;;;;;;14.43;2.00;;;13.40;99.90;;;;;;4962079;28;20632;-66
2022/09/15 05:56:16;;;;;;;11.20;1.58;;;13.40;99.90;;;;;;4919594;28;209321;-66
2022/09/15 05:58:44;;;;;;;10.07;1.40;;;13.50;99.90;;;;;;4957812;28;20047;-66
2022/09/15 06:01:19;;;;;;;12.32;1.50;;;13.50;99.90;;;;;;4933984;28;213776;-66
2022/09/15 06:03:46;;;;;;;12.65;1.88;;;13.50;99.90;;;;;;4967256;28;20055;-65
2022/09/15 06:06:12;;;;;;;9.50;1.55;;;13.50;99.90;;;;;;4914871;28;210559;-65
2022/09/15 06:08:41;;;;;;;9.43;1.65;;;13.50;99.90;;;;;;4963848;28;20076;-66
2022/09/15 06:11:14;;;;;;;11.43;1.40;;;13.50;99.90;;;;;;4920493;28;210234;-67
2022/09/15 06:13:41;;;;;;;10.35;1.48;;;13.60;99.90;;;;;;4978097;28;20408;-66
2022/09/15 06:16:10;;;;;;;10.23;1.48;;;13.60;99.90;;;;;;4911668;28;216544;-67
2022/09/15 06:18:38;;;;;;;13.02;1.58;;;13.70;99.90;;;;;;4965488;28;20066;-65
2022/09/15 06:21:06;;;;;;;9.55;1.60;;;13.70;99.90;;;;;;4942876;28;207040;-66
2022/09/15 06:23:33;;;;;;;10.63;1.70;;;13.80;99.90;;;;;;4985249;28;21526;-67
2022/09/15 06:26:12;;;;;;;10.77;1.65;;;13.80;99.90;;;;;;4958142;28;206589;-66
2022/09/15 06:28:41;;;;;;;14.10;1.60;;;13.90;99.90;;;;;;4990279;28;20062;-66
2022/09/15 06:31:11;;;;;;;10.30;1.58;;;13.90;99.90;;;;;;4940624;28;207717;-66
2022/09/15 06:33:45;;;;;;;10.88;1.50;;;14.00;99.90;;;;;;4994064;28;20050;-67
2022/09/15 06:36:12;;;;;;;10.45;1.40;;;14.10;99.90;;;;;;4947925;28;204026;-67
2022/09/15 06:38:39;;;;;;;10.10;1.48;;;14.20;99.90;;;;;;4995679;28;20053;-66
2022/09/15 06:41:06;;;;;;;12.50;2.00;;;14.30;99.90;;;;;;4946493;28;210572;-66
2022/09/15 06:43:33;;;;;;;10.40;1.42;;;14.90;99.90;;;;;;4985333;28;20057;-67
2022/09/15 06:46:14;;;;;;;12.35;1.63;;;15.70;99.90;;;;;;4944497;28;210094;-65
2022/09/15 06:48:41;;;;;;;10.20;1.25;;;16.30;99.90;;;;;;4982821;28;20050;-67
2022/09/15 06:51:09;;;;;;;16.50;1.85;;;16.20;99.90;;;;;;4952545;28;207870;-67
2022/09/15 06:53:37;;;;;;;12.65;1.75;;;16.10;99.90;;;;;;4996399;28;20058;-67
2022/09/15 06:56:06;;;;;;;11.90;1.55;;;16.00;99.90;;;;;;4943043;28;209670;-67
2022/09/15 06:58:37;;;;;;;12.82;1.60;;;15.90;99.90;;;;;;4989575;28;20073;-67
2022/09/15 07:01:04;;;;;;;;;;;15.80;99.90;;;;;;4949775;28;211932;-67
2022/09/15 07:03:30;;;;;;;11.98;1.45;;;15.70;99.90;;;;;;4990628;28;19929;-68
2022/09/15 07:05:57;;;;;;;10.43;1.55;;;15.70;99.90;;;;;;4939564;28;212872;-66
2022/09/15 07:08:23;;;;;;;11.88;1.60;;;15.60;99.90;;;;;;4995623;28;20055;-66
2022/09/15 07:10:49;;;;;;;13.25;1.60;;;15.60;99.90;;;;;;4948749;28;208423;-66
2022/09/15 07:13:15;;;;;;;12.20;1.58;;;15.60;99.90;;;;;;4984191;28;20065;-67
2022/09/15 07:15:52;;;;;;;9.68;1.52;;;15.60;99.90;;;;;;4951259;28;213721;-67
2022/09/15 07:18:18;;;;;;;11.18;1.85;;;15.60;99.90;;;;;;4994044;28;20054;-67
2022/09/15 07:20:44;;;;;;;10.18;1.33;;;15.60;99.90;;;;;;4941505;28;217093;-67
2022/09/15 07:23:11;;;;;;;10.63;1.40;;;15.60;99.90;;;;;;4986081;28;20129;-65
2022/09/15 07:25:37;;;;;;;10.45;1.55;;;15.60;99.90;;;;;;4933494;28;224112;-67
2022/09/15 07:28:03;;;;;;;10.75;1.40;;;15.60;99.90;;;;;;4987980;28;20065;-66
2022/09/15 07:30:29;;;;;;;11.52;1.58;;;15.60;99.90;;;;;;4951378;28;209467;-66
2022/09/15 07:32:55;;;;;;;10.60;1.52;;;15.70;99.90;;;;;;4995926;28;20046;-67
2022/09/15 07:35:22;;;;;;;10.68;1.40;;;15.80;99.90;;;;;;4956741;28;128698;-67
2022/09/15 07:37:48;;;;;;;11.45;1.50;;;15.80;99.90;;;;;;4998919;28;20054;-67
2022/09/15 07:40:14;;;;;;;12.70;1.60;;;15.90;99.90;;;;;;4941219;28;210557;-67
2022/09/15 07:42:44;;;;;;;9.50;1.30;;;15.90;99.90;;;;;;4987021;28;20050;-68
2022/09/15 07:45:11;;;;;;;10.60;1.60;;;16.00;99.90;;;;;;4947477;28;209572;-67
2022/09/15 07:47:37;;;;;;;6.85;1.00;;;15.90;99.90;;;;;;4990456;28;20397;-68
2022/09/15 07:50:05;;;;;;;9.80;1.20;;;16.00;99.90;;;;;;4938168;28;228228;-67
2022/09/15 07:52:31;;;;;;;10.38;1.30;;;16.00;99.90;;;;;;4993628;28;20045;-67
2022/09/15 07:54:57;;;;;;;6.80;1.17;;;16.10;99.90;;;;;;4976352;28;211821;-67
2022/09/15 07:57:23;;;;;;;8.23;1.23;;;16.20;99.90;;;;;;4960179;28;206490;-67
2022/09/15 07:59:49;;;;;;;7.55;1.15;;;16.20;99.90;;;;;;4989332;28;20049;-67
2022/09/15 08:02:19;;;;;;;9.02;1.23;;;16.30;99.90;;;;;;4941313;28;196383;-67
2022/09/15 08:04:45;;;;;;;9.50;1.20;;;16.40;99.90;;;;;;4983548;28;20066;-67
2022/09/15 08:07:12;;;;;;;9.35;1.10;;;16.70;99.90;;;;;;4944139;28;210843;-67
2022/09/15 08:09:39;;;;;;;9.90;1.40;;;16.80;99.90;;;;;;4988922;28;20058;-66
2022/09/15 08:12:06;;;;;;;7.93;1.10;;;16.90;99.90;;;;;;4924868;28;206914;-67
2022/09/15 08:14:33;;;;;;;11.13;1.38;;;16.90;99.90;;;;;;4987852;28;20423;-68
2022/09/15 08:17:01;;;;;;;9.35;1.15;;;16.80;99.90;;;;;;4928556;28;209931;-67
2022/09/15 08:19:27;;;;;;;8.35;1.27;;;16.80;99.90;;;;;;5003382;28;20058;-67
2022/09/15 08:21:53;;;;;;;12.82;1.27;;;16.80;99.90;;;;;;4930376;28;209125;-67
2022/09/15 08:24:21;;;;;;;7.10;0.93;;;16.80;99.90;;;;;;4988699;28;20054;-67
2022/09/15 08:26:48;;;;;;;8.80;1.60;;;16.90;99.90;;;;;;4951683;28;212983;-67
2022/09/15 08:29:14;;;;;;;8.93;1.17;;;17.10;99.90;;;;;;4988167;28;20054;-68
2022/09/15 08:31:40;;;;;;;9.50;1.20;;;17.40;99.90;;;;;;4943940;28;206314;-67
2022/09/15 08:34:10;;;;;;;10.38;1.20;;;18.10;99.90;;;;;;4992336;28;20062;-67
2022/09/15 08:36:36;;;;;;;9.60;1.25;;;18.70;99.90;;;;;;4940476;28;232466;-67
2022/09/15 08:39:02;;;;;;;11.05;1.17;;;19.20;99.90;;;;;;4971460;28;20058;-68
2022/09/15 08:41:33;;;;;;;7.55;1.10;;;19.50;99.90;;;;;;4939188;28;212894;-67
2022/09/15 08:44:20;;;;;;;9.00;1.10;;;19.80;99.90;;;;;;4967875;28;20065;-67
2022/09/15 08:46:58;;;;;;;8.63;1.00;;;20.10;99.90;;;;;;4917891;28;208711;-68
2022/09/15 08:49:30;;;;;;;9.40;1.10;;;20.50;99.30;;;;;;4985425;28;20061;-68
2022/09/15 08:52:02;;;;;;;9.55;1.45;;;20.70;99.10;;;;;;4941546;28;212512;-68
2022/09/15 08:54:29;;;;;;;9.35;1.20;;;21.00;99.20;;;;;;4988919;28;20066;-68
2022/09/15 08:56:57;;;;;;;6.82;1.00;;;20.50;97.90;;;;;;4923066;28;229951;-69
2022/09/15 08:59:30;;;;;;;8.95;1.40;;;19.90;98.40;;;;;;4983612;28;20455;-68
2022/09/15 09:02:22;;;;;;;8.65;1.20;;;19.40;97.80;;;;;;4913592;28;208598;-68
2022/09/15 09:05:00;;;;;;;12.02;1.40;;;19.10;98.00;;;;;;4986983;28;20046;-67
2022/09/15 09:07:34;;;;;;;10.00;1.33;;;18.80;98.40;;;;;;4957445;28;93277;-67
2022/09/15 09:10:24;;;;;;;8.85;1.15;;;18.50;98.80;;;;;;4961954;28;215174;-68
2022/09/15 09:12:56;;;;;;;8.45;1.23;;;18.20;98.40;;;;;;4967182;28;206665;-68
2022/09/15 09:15:31;;;;;;;11.30;1.67;;;18.00;99.00;;;;;;4942103;28;215032;-68
2022/09/15 09:18:37;;;;;;;10.93;1.45;;;18.10;99.50;;;;;;4988859;28;20435;-68
2022/09/15 09:21:29;;;;;;;9.70;1.40;;;18.30;99.40;;;;;;4949870;28;217341;-67
2022/09/15 09:24:14;;;;;;;8.80;1.30;;;18.90;98.90;;;;;;4984446;28;20069;-68
2022/09/15 09:26:40;;;;;;;10.65;1.52;;;19.10;98.60;;;;;;4939051;28;216381;-68
2022/09/15 09:29:25;;;;;;;9.85;1.50;;;18.80;98.80;;;;;;4981939;28;20050;-68
2022/09/15 09:31:54;;;;;;;11.52;1.38;;;18.80;98.60;;;;;;4935593;28;207193;-68
2022/09/15 09:34:44;;;;;;;10.50;1.27;;;18.70;98.80;;;;;;4990972;28;20071;-67
2022/09/15 09:37:15;;;;;;;7.95;1.17;;;19.00;98.10;;;;;;4919582;28;213074;-67
2022/09/15 09:39:41;;;;;;;10.65;1.13;;;19.30;97.60;;;;;;4990961;28;20045;-68
2022/09/15 09:42:15;;;;;;;11.68;1.48;;;19.20;96.90;;;;;;4941055;28;216594;-68
2022/09/15 09:44:41;;;;;;;8.90;1.15;;;18.80;97.00;;;;;;4988706;28;20050;-69
2022/09/15 09:47:08;;;;;;;7.82;1.13;;;18.50;96.90;;;;;;4939809;28;208971;-68
2022/09/15 09:49:44;;;;;;;11.20;1.67;;;18.50;97.00;;;;;;4985558;28;20427;-69
2022/09/15 09:52:11;;;;;;;7.40;1.30;;;18.20;97.50;;;;;;4937784;28;217676;-69
2022/09/15 09:54:37;;;;;;;10.50;1.08;;;18.40;97.60;;;;;;4987180;28;20062;-68
2022/09/15 09:57:12;;;;;;;8.05;1.30;;;18.90;97.20;;;;;;4943319;28;214997;-69
2022/09/15 09:59:40;;;;;;;16.00;1.13;;;19.10;96.50;;;;;;4993127;28;20056;-67
2022/09/15 10:02:14;;;;;;;5.88;1.02;;;19.30;96.40;;;;;;4927557;28;206875;-69
2022/09/15 10:04:43;;;;;;;8.63;1.13;;;19.40;96.30;;;;;;4969371;28;20054;-69
2022/09/15 10:07:10;;;;;;;8.18;1.25;;;19.10;96.50;;;;;;4936202;28;212319;-68
2022/09/15 10:09:37;;;;;;;11.52;1.30;;;19.00;96.70;;;;;;4980698;28;20066;-67
2022/09/15 10:12:05;;;;;;;10.35;1.20;;;18.60;97.20;;;;;;4940422;28;211557;-68
2022/09/15 10:14:39;;;;;;;5.85;0.93;;;18.40;98.00;;;;;;4984611;28;20594;-66
2022/09/15 10:17:38;;;;;;;7.38;0.90;;;17.70;99.30;;;;;;4936786;28;213468;-68
2022/09/15 10:20:38;;;;;;;9.35;1.13;;;17.10;99.90;;;;;;4937579;28;221851;-68
2022/09/15 10:23:16;;;;;;;9.75;1.25;;;16.90;99.90;;;;;;4987617;28;20048;-68
2022/09/15 10:25:44;;;;;;;9.00;1.55;;;16.80;99.90;;;;;;4941531;28;205918;-69
2022/09/15 10:28:14;;;;;;;9.90;1.10;;;16.90;99.90;;;;;;4957235;28;20058;-68
2022/09/15 10:30:59;;;;;;;;;;;17.20;99.90;;;;;;4923715;28;210514;-68
2022/09/15 10:33:28;;;;;;;7.53;1.25;;;17.10;99.90;;;;;;4959712;28;20261;-65
2022/09/15 10:36:02;;;;;;;10.70;1.40;;;17.20;99.90;;;;;;4922530;28;213701;-68
2022/09/15 10:38:46;;;;;;;7.07;1.10;;;17.40;99.90;;;;;;4950835;28;20059;-68
2022/09/15 10:41:26;;;;;;;9.80;1.50;;;18.20;99.90;;;;;;4931479;28;226221;-68
2022/09/15 10:44:21;;;;;;;10.67;1.50;;;19.20;99.90;;;;;;4984117;28;20046;-67
2022/09/15 10:46:54;;;;;;;11.13;1.35;;;19.50;99.90;;;;;;4938091;28;209508;-67
2022/09/15 10:49:50;;;;;;;8.95;1.20;;;19.80;98.60;;;;;;4982282;28;20053;-68
2022/09/15 10:52:19;;;;;;;8.02;1.38;;;20.00;97.70;;;;;;4949867;28;209672;-68
2022/09/15 10:54:56;;;;;;;8.02;1.40;;;20.00;98.50;;;;;;4982117;28;20074;-67
2022/09/15 10:57:36;;;;;;;8.77;1.30;;;19.90;97.80;;;;;;4923448;28;205857;-68
2022/09/15 11:00:10;;;;;;;12.23;1.60;;;19.50;98.40;;;;;;4914407;28;211021;-69
2022/09/15 11:03:08;;;;;;;7.47;1.23;;;18.60;99.90;;;;;;4978391;28;20045;-68
2022/09/15 11:05:47;;;;;;;7.30;1.20;;;17.90;99.90;;;;;;4938922;28;209296;-68
2022/09/15 11:08:51;;;;;;;12.68;1.50;;;17.40;99.90;;;;;;4997878;28;20058;-68
2022/09/15 11:11:47;;;;;;;9.55;1.30;;;17.10;99.90;;;;;;4943269;28;206164;-67
2022/09/15 11:14:40;;;;;;;10.35;1.33;;;17.10;99.90;;;;;;4981335;28;20092;-67
2022/09/15 11:17:24;;;;;;;8.23;1.35;;;17.90;99.90;;;;;;4928430;28;206437;-68
2022/09/15 11:20:16;;;;;;;9.02;1.25;;;19.20;99.90;;;;;;4987073;28;20050;-68
2022/09/15 11:22:59;;;;;;;9.70;1.10;;;20.20;99.90;;;;;;4944429;28;208936;-68
2022/09/15 11:25:29;;;;;;;9.98;1.13;;;21.60;99.00;;;;;;4935242;28;212963;-67
2022/09/15 11:28:47;;;;;;;6.97;1.00;;;22.50;97.40;;;;;;4969071;28;20050;-67
2022/09/15 11:31:16;;;;;;;8.30;1.10;;;22.90;94.50;;;;;;4879325;29;207029;-68
2022/09/15 11:33:51;;;;;;;6.15;1.00;;;22.20;94.30;;;;;;4918352;28;20051;-68
2022/09/15 11:36:20;;;;;;;6.93;0.93;;;21.60;95.70;;;;;;4860235;29;206281;-68
2022/09/15 11:39:09;;;;;;;6.18;0.98;;;21.50;95.80;;;;;;4903074;29;20059;-67
2022/09/15 11:41:43;;;;;;;7.75;1.10;;;22.30;94.70;;;;;;4885194;28;208077;-68
2022/09/15 11:44:14;;;;;;;7.18;0.90;;;21.90;93.70;;;;;;4928377;28;20055;-68
2022/09/15 11:46:51;;;;;;;6.60;1.00;;;21.70;94.30;;;;;;4872844;29;179511;-68
2022/09/15 11:49:38;;;;;;;6.40;0.90;;;21.50;93.10;;;;;;4910762;29;20051;-67
2022/09/15 11:52:17;;;;;;;6.07;0.88;;;21.30;92.80;;;;;;4873206;28;206058;-68
2022/09/15 11:54:50;;;;;;;6.90;1.13;;;20.70;93.70;;;;;;4925315;29;20682;-68
2022/09/15 11:57:26;;;;;;;6.93;1.13;;;20.90;93.30;;;;;;4885192;29;209679;-67
2022/09/15 12:00:05;;;;;;;9.48;1.25;;;20.50;92.90;;;;;;4924428;29;20395;-67
2022/09/15 12:03:00;;;;;;;6.53;1.00;;;20.20;93.70;;;;;;4867502;29;204567;-67
2022/09/15 12:05:33;;;;;;;7.35;1.10;;;20.20;94.20;;;;;;4791306;29;206346;-68
2022/09/15 12:08:20;;;;;;;5.57;0.90;;;20.20;94.50;;;;;;4880937;29;20580;-67
2022/09/15 12:10:53;;;;;;;8.77;1.00;;;20.30;94.10;;;;;;4878529;29;227986;-67
2022/09/15 12:13:23;;;;;;;7.15;0.90;;;20.20;93.50;;;;;;4906871;29;20058;-67
2022/09/15 12:15:50;;;;;;;6.28;0.93;;;20.30;94.00;;;;;;4890278;29;60662;-68
2022/09/15 12:18:36;;;;;;;6.22;1.00;;;20.40;93.90;;;;;;4905822;29;20062;-68
2022/09/15 12:21:18;;;;;;;7.43;1.10;;;20.70;93.90;;;;;;4875518;28;206508;-67
2022/09/15 12:23:50;;;;;;;7.20;0.90;;;21.90;93.70;;;;;;4913314;29;20060;-67
2022/09/15 12:26:19;;;;;;;6.97;0.90;;;23.10;93.50;;;;;;4858763;29;206515;-67
2022/09/15 12:28:45;;;;;;;4.93;0.80;;;23.80;90.50;;;;;;4916853;29;20429;-68
2022/09/15 12:31:30;;;;;;;5.93;0.82;;;24.20;88.10;;;;;;4870307;29;209504;-68
2022/09/15 12:34:15;;;;;;;4.85;0.77;;;24.80;82.80;;;;;;4922224;29;20195;-68
2022/09/15 12:36:46;;;;;;;5.28;0.73;;;24.60;83.90;;;;;;4877925;29;158084;-68
2022/09/15 12:39:37;;;;;;;5.47;0.90;;;25.00;80.20;;;;;;4920896;29;20517;-68
2022/09/15 12:42:22;;;;;;;8.45;0.95;;;25.20;76.80;;;;;;4911807;28;208085;-68
2022/09/15 12:45:14;;;;;;;7.85;1.00;;;24.90;76.00;;;;;;4982626;28;20833;-68
2022/09/15 12:47:48;;;;;;;4.50;0.80;;;24.90;74.80;;;;;;4943614;28;219142;-67
2022/09/15 12:50:14;;;;;;;6.35;0.80;;;25.30;76.10;;;;;;4933220;28;216404;-67
2022/09/15 12:52:50;;;;;;;4.88;0.95;;;25.90;76.50;;;;;;4994243;28;20054;-67
2022/09/15 12:55:23;;;;;;;4.82;0.90;;;26.10;73.20;;;;;;4928624;28;215049;-67
2022/09/15 12:57:53;;;;;;;6.38;1.00;;;25.30;73.90;;;;;;4965399;28;20058;-67
2022/09/15 13:00:19;;;;;;;8.60;1.20;;;23.90;77.90;;;;;;4939532;28;209868;-67